This is the latest recevied weather packets stored in our database for station/object KN4CI-1. If no packets are shown the sender has not sent any weather packets the latest 10 day(s).
| Time | Temp. | Humidity | Pressure | Rain* | Wind** | Luminosity | Snow |
|---|---|---|---|---|---|---|---|
| 1787510067 | 31.11° C | 13% | 1016.6 hPa | 0 mm | 0 m/s | - | - |
| 1787508252 | 31.67° C | 12% | 1017.6 hPa | 0 mm | 0 m/s | - | - |
| 1787507952 | 31.67° C | 12% | 1017.6 hPa | 0 mm | 0 m/s | - | - |
| 1787506439 | 31.11° C | 13% | 1017.6 hPa | 0 mm | 0 m/s | - | - |
| 1787503114 | 29.44° C | 13% | 1017.6 hPa | 0 mm | 0 m/s | - | - |
| 1787502814 | 29.44° C | 13% | 1017.6 hPa | 0 mm | 0 m/s | - | - |
| 1787501303 | 28.89° C | 13% | 1017.6 hPa | 0 mm | 0 m/s | - | - |
| 1787501003 | 28.33° C | 14% | 1017.6 hPa | 0 mm | 0 m/s | - | - |
| 1787500099 | 28.33° C | 14% | 1017.6 hPa | 0 mm | 0 m/s | - | - |
| 1787497676 | 27.22° C | 14% | 1017.6 hPa | 0 mm | 0 m/s | - | - |
| 1787497377 | 27.22° C | 14% | 1017.6 hPa | 0 mm | 0 m/s | - | - |
| 1787496773 | 26.67° C | 14% | 1017.6 hPa | 0 mm | 0 m/s | - | - |
| 1787495565 | 26.11° C | 17% | 1017.6 hPa | 0 mm | 0 m/s | - | - |
| 1787490746 | 23.33° C | 43% | 1017.6 hPa | 0 mm | 0 m/s | - | - |
| 1787486507 | 20.56° C | 47% | 1017.6 hPa | 0 mm | 0 m/s | - | - |
| 1787484986 | 20.56° C | 47% | 1016.6 hPa | 0 mm | 0 m/s | - | - |
| 1787482577 | 20.56° C | 46% | 1016.6 hPa | 0 mm | 0 m/s | - | - |
| 1787479536 | 20.56° C | 45% | 1016.6 hPa | 0 mm | 0 m/s | - | - |
| 1787478329 | 20.56° C | 45% | 1016.6 hPa | 0 mm | 0 m/s | - | - |
| 1787477723 | 21.11° C | 44% | 1016.6 hPa | 0 mm | 0 m/s | - | - |
| 1787477423 | 21.11° C | 44% | 1016.6 hPa | 0 mm | 0 m/s | - | - |
| 1787477123 | 21.11° C | 44% | 1016.6 hPa | 0 mm | 0 m/s | - | - |
| 1787476815 | 21.11° C | 44% | 1016.6 hPa | 0 mm | 0 m/s | - | - |
| 1787476214 | 21.11° C | 44% | 1016.6 hPa | 0 mm | 0 m/s | - | - |
| 1787472896 | 21.11° C | 43% | 1016.6 hPa | 0 mm | 0 m/s | - | - |
* Rain latest hour (hover to see other rain measurements)
** Current wind speed in m/s (hover to see current wind gust speed)